sensor_id;sensor_type;location;lat;lon;timestamp;temperature;humidity
949;DHT22;461;51.436;7.312;2023-04-19T17:54:17;13.40;44.10
949;DHT22;461;51.436;7.312;2023-04-19T17:56:43;13.40;44.40
949;DHT22;461;51.436;7.312;2023-04-19T17:59:09;13.40;44.50
949;DHT22;461;51.436;7.312;2023-04-19T18:01:34;13.50;44.80
949;DHT22;461;51.436;7.312;2023-04-19T18:04:01;13.60;45.10
949;DHT22;461;51.436;7.312;2023-04-19T18:06:27;13.60;45.20
949;DHT22;461;51.436;7.312;2023-04-19T18:08:53;13.40;44.80
949;DHT22;461;51.436;7.312;2023-04-19T18:11:22;13.30;44.90
949;DHT22;461;51.436;7.312;2023-04-19T19:53:57;13.30;45.60
949;DHT22;461;51.436;7.312;2023-04-19T19:56:24;11.30;55.30
949;DHT22;461;51.436;7.312;2023-04-19T19:58:50;11.30;54.90
949;DHT22;461;51.436;7.312;2023-04-19T20:01:16;11.30;55.30
949;DHT22;461;51.436;7.312;2023-04-19T20:03:42;11.20;55.70
949;DHT22;461;51.436;7.312;2023-04-19T20:06:08;11.20;55.70
949;DHT22;461;51.436;7.312;2023-04-19T20:08:36;11.10;55.50
949;DHT22;461;51.436;7.312;2023-04-19T20:11:03;11.20;56.40
949;DHT22;461;51.436;7.312;2023-04-19T20:13:29;11.00;56.30
949;DHT22;461;51.436;7.312;2023-04-19T20:15:54;10.90;56.30
949;DHT22;461;51.436;7.312;2023-04-19T20:18:23;10.90;56.60
949;DHT22;461;51.436;7.312;2023-04-19T20:20:49;10.90;56.80
949;DHT22;461;51.436;7.312;2023-04-19T20:23:19;10.80;57.00
949;DHT22;461;51.436;7.312;2023-04-19T20:25:46;10.70;57.50
949;DHT22;461;51.436;7.312;2023-04-19T20:28:12;10.80;57.70
949;DHT22;461;51.436;7.312;2023-04-19T20:30:39;10.70;57.70
949;DHT22;461;51.436;7.312;2023-04-19T20:33:06;10.70;57.60
949;DHT22;461;51.436;7.312;2023-04-19T20:35:32;10.60;58.00
949;DHT22;461;51.436;7.312;2023-04-19T20:38:01;10.50;58.50
949;DHT22;461;51.436;7.312;2023-04-19T20:40:33;10.60;58.20
949;DHT22;461;51.436;7.312;2023-04-19T20:43:00;10.40;58.30
949;DHT22;461;51.436;7.312;2023-04-19T20:45:28;10.40;58.90
949;DHT22;461;51.436;7.312;2023-04-19T20:47:57;10.40;58.80
949;DHT22;461;51.436;7.312;2023-04-19T20:51:00;10.40;59.40
949;DHT22;461;51.436;7.312;2023-04-19T20:53:33;10.30;59.30
949;DHT22;461;51.436;7.312;2023-04-19T20:56:19;10.30;59.20
949;DHT22;461;51.436;7.312;2023-04-19T22:35:47;9.60;60.50
949;DHT22;461;51.436;7.312;2023-04-19T22:38:14;9.70;60.20
949;DHT22;461;51.436;7.312;2023-04-19T22:40:43;9.60;58.90
949;DHT22;461;51.436;7.312;2023-04-19T22:43:13;9.60;58.90
949;DHT22;461;51.436;7.312;2023-04-19T22:45:39;9.50;59.40
949;DHT22;461;51.436;7.312;2023-04-19T22:48:17;9.40;59.20
949;DHT22;461;51.436;7.312;2023-04-19T22:50:56;9.40;59.40
949;DHT22;461;51.436;7.312;2023-04-19T22:53:28;9.20;59.00
949;DHT22;461;51.436;7.312;2023-04-19T23:13:54;9.10;60.00
949;DHT22;461;51.436;7.312;2023-04-19T23:35:39;9.00;61.00
